Canton, Ohio
Current Conditions -  °F | °C
As of 9:51 AM on Thursday 23 Oct 2014 (Local Time) from KCAK Reporting Station
Haze Haze  
Wind Chill: 47°   Ceiling: 800
Heat Index: 49°   Visibility: 5mi
Dew Point: 45°   Wind: 6mph
Humidity: 86%   Direction: 340°NNW
Pressure: 30.19"   Gusts: NA
Location:  40.8°N, 81.37°W
Report Text: KCAK 231351Z 34005KT 5SM BR OVC008 09/07 A3019 RMK AO2 SLP230 T00940072
Loading
Personal Weather Stations






























Interactive Weather Map
Tropical Storm Tracking
New forecast layout! Learn more

10-Day Weather Forecast

Advertisements
Track Severe Weather on mobile